createdAt,value
2023-05-05T00:00:59.171Z,893.00
2023-05-05T00:01:59.201Z,907.00
2023-05-05T00:02:59.262Z,901.00
2023-05-05T00:03:59.283Z,916.00
2023-05-05T00:04:59.158Z,897.00
2023-05-05T00:05:59.170Z,907.00
2023-05-05T00:06:59.150Z,897.00
2023-05-05T00:07:59.142Z,894.00
2023-05-05T00:08:59.132Z,884.00
2023-05-05T00:09:59.152Z,887.00
2023-05-05T00:10:59.127Z,881.00
2023-05-05T00:11:59.096Z,898.00
2023-05-05T00:12:59.121Z,897.00
2023-05-05T00:13:59.105Z,880.00
2023-05-05T00:14:59.127Z,887.00
2023-05-05T00:15:59.121Z,877.00
2023-05-05T00:16:59.129Z,870.00
2023-05-05T00:17:59.088Z,888.00
2023-05-05T00:18:59.060Z,881.00
2023-05-05T00:19:59.082Z,883.00
2023-05-05T00:20:59.076Z,872.00
2023-05-05T00:21:59.081Z,884.00
2023-05-05T00:22:59.055Z,876.00
2023-05-05T00:23:59.041Z,870.00
2023-05-05T00:24:59.044Z,856.00
2023-05-05T00:25:59.014Z,887.00
2023-05-05T00:26:59.028Z,869.00
2023-05-05T00:27:59.022Z,868.00
2023-05-05T00:28:59.015Z,871.00
2023-05-05T00:29:58.993Z,860.00
2023-05-05T00:30:59.025Z,870.00
2023-05-05T00:31:59.008Z,867.00
2023-05-05T00:32:59.005Z,871.00
2023-05-05T00:33:58.987Z,854.00
2023-05-05T00:34:58.997Z,860.00
2023-05-05T00:35:59.031Z,849.00
2023-05-05T00:36:58.974Z,856.00
2023-05-05T00:37:58.939Z,838.00
2023-05-05T00:38:58.938Z,856.00
2023-05-05T00:39:58.940Z,850.00
2023-05-05T00:40:58.964Z,844.00
2023-05-05T00:41:58.923Z,842.00
2023-05-05T00:42:58.938Z,849.00
2023-05-05T00:43:58.934Z,848.00
2023-05-05T00:44:58.908Z,850.00
2023-05-05T00:45:58.999Z,851.00
2023-05-05T00:46:58.906Z,843.00
2023-05-05T00:47:58.934Z,830.00
2023-05-05T00:48:58.906Z,825.00
2023-05-05T00:49:58.874Z,831.00
2023-05-05T00:50:58.885Z,826.00
2023-05-05T00:51:58.865Z,826.00
2023-05-05T00:52:58.867Z,824.00
2023-05-05T00:53:58.889Z,821.00
2023-05-05T00:54:58.834Z,817.00
2023-05-05T00:55:58.863Z,820.00
2023-05-05T00:56:58.807Z,816.00
2023-05-05T00:57:58.805Z,824.00
2023-05-05T00:58:58.803Z,815.00
2023-05-05T00:59:58.815Z,791.00
2023-05-05T01:00:58.843Z,819.00
2023-05-05T01:01:58.824Z,806.00
2023-05-05T01:02:58.891Z,812.00
2023-05-05T01:03:58.884Z,814.00
2023-05-05T01:04:58.785Z,813.00
2023-05-05T01:05:58.758Z,814.00
2023-05-05T01:06:58.761Z,808.00
2023-05-05T01:07:58.759Z,797.00
2023-05-05T01:08:58.757Z,806.00
2023-05-05T01:10:15.079Z,796.00
2023-05-05T01:10:59.758Z,797.00
2023-05-05T01:11:58.751Z,801.00
2023-05-05T01:12:58.785Z,800.00
2023-05-05T01:13:58.768Z,809.00
2023-05-05T01:14:58.711Z,810.00
2023-05-05T01:15:58.741Z,809.00
2023-05-05T01:16:58.702Z,809.00
2023-05-05T01:17:58.766Z,816.00
2023-05-05T01:18:58.686Z,808.00
2023-05-05T01:19:58.709Z,795.00
2023-05-05T01:20:58.692Z,782.00
2023-05-05T01:21:58.660Z,797.00
2023-05-05T01:22:58.667Z,789.00
2023-05-05T01:23:58.658Z,789.00
2023-05-05T01:24:58.643Z,778.00
2023-05-05T01:25:58.633Z,776.00
2023-05-05T01:26:58.644Z,783.00
2023-05-05T01:27:58.694Z,793.00
2023-05-05T01:28:58.698Z,789.00
2023-05-05T01:29:58.704Z,774.00
2023-05-05T01:30:58.712Z,785.00
2023-05-05T01:31:58.759Z,770.00
2023-05-05T01:32:58.695Z,782.00
2023-05-05T01:33:58.725Z,782.00
2023-05-05T01:34:58.704Z,777.00
2023-05-05T01:35:58.757Z,769.00
2023-05-05T01:36:58.711Z,782.00
2023-05-05T01:37:58.738Z,791.00
2023-05-05T01:38:58.757Z,788.00
2023-05-05T01:39:58.751Z,778.00
2023-05-05T01:40:58.791Z,777.00
2023-05-05T01:41:58.743Z,768.00
2023-05-05T01:42:58.770Z,767.00
2023-05-05T01:43:58.887Z,771.00
2023-05-05T01:44:58.970Z,760.00
2023-05-05T01:45:59.102Z,755.00
2023-05-05T01:46:59.055Z,774.00
2023-05-05T01:47:59.120Z,756.00
2023-05-05T01:48:59.096Z,754.00
2023-05-05T01:49:59.113Z,757.00
2023-05-05T01:50:59.101Z,754.00
2023-05-05T01:51:59.178Z,758.00
2023-05-05T01:52:59.169Z,749.00
2023-05-05T01:53:59.160Z,752.00
2023-05-05T01:54:59.192Z,738.00
2023-05-05T01:55:59.198Z,748.00
2023-05-05T01:56:59.210Z,738.00
2023-05-05T01:57:59.280Z,753.00
2023-05-05T01:58:59.262Z,759.00
2023-05-05T01:59:59.307Z,751.00
2023-05-05T02:00:59.348Z,760.00
2023-05-05T02:01:59.312Z,763.00
2023-05-05T02:02:59.368Z,749.00
2023-05-05T02:03:59.371Z,744.00
2023-05-05T02:04:59.491Z,759.00
2023-05-05T02:05:59.520Z,750.00
2023-05-05T02:06:59.546Z,742.00
2023-05-05T02:07:59.496Z,738.00
2023-05-05T02:08:59.504Z,743.00
2023-05-05T02:09:59.512Z,741.00
2023-05-05T02:10:59.524Z,735.00
2023-05-05T02:11:59.511Z,727.00
2023-05-05T02:12:59.565Z,719.00
2023-05-05T02:13:59.628Z,713.00
2023-05-05T02:14:59.635Z,714.00
2023-05-05T02:15:59.780Z,725.00
2023-05-05T02:16:59.842Z,726.00
2023-05-05T02:17:59.967Z,732.00
2023-05-05T02:18:59.948Z,707.00
2023-05-05T02:19:59.970Z,720.00
2023-05-05T02:20:59.958Z,717.00
2023-05-05T02:21:59.992Z,707.00
2023-05-05T02:23:00.024Z,703.00
2023-05-05T02:24:00.141Z,711.00
2023-05-05T02:25:00.188Z,698.00
2023-05-05T02:26:00.195Z,703.00
2023-05-05T02:27:00.197Z,716.00
2023-05-05T02:28:00.254Z,704.00
2023-05-05T02:29:00.245Z,699.00
2023-05-05T02:30:00.244Z,706.00
2023-05-05T02:31:00.419Z,700.00
2023-05-05T02:32:00.350Z,706.00
2023-05-05T02:33:00.422Z,697.00
2023-05-05T02:34:00.378Z,708.00
2023-05-05T02:35:00.398Z,703.00
2023-05-05T02:36:00.430Z,714.00
2023-05-05T02:37:00.519Z,693.00
2023-05-05T02:38:00.528Z,695.00
2023-05-05T02:39:00.531Z,706.00
2023-05-05T02:40:00.532Z,688.00
2023-05-05T02:41:00.585Z,687.00
2023-05-05T02:42:00.582Z,691.00
2023-05-05T02:43:00.623Z,694.00
2023-05-05T02:44:00.619Z,702.00
2023-05-05T02:45:00.612Z,679.00
2023-05-05T02:46:00.695Z,701.00
2023-05-05T02:47:00.663Z,681.00
2023-05-05T02:48:00.666Z,691.00
2023-05-05T02:49:00.669Z,688.00
2023-05-05T02:50:00.696Z,699.00
2023-05-05T02:51:00.705Z,699.00
2023-05-05T02:52:00.703Z,701.00
2023-05-05T02:53:00.720Z,690.00
2023-05-05T02:54:00.711Z,686.00
2023-05-05T02:55:00.849Z,697.00
2023-05-05T02:56:01.773Z,707.00
2023-05-05T02:57:00.743Z,690.00
2023-05-05T02:58:00.781Z,686.00
2023-05-05T02:59:00.773Z,700.00
2023-05-05T03:00:00.821Z,690.00
2023-05-05T03:01:00.828Z,683.00
2023-05-05T03:02:00.841Z,695.00
2023-05-05T03:03:00.985Z,676.00
2023-05-05T03:04:00.876Z,676.00
2023-05-05T03:05:00.887Z,673.00
2023-05-05T03:06:00.864Z,675.00
2023-05-05T03:07:00.867Z,675.00
2023-05-05T03:08:00.891Z,671.00
2023-05-05T03:09:00.905Z,666.00
2023-05-05T03:10:00.885Z,660.00
2023-05-05T03:11:00.934Z,674.00
2023-05-05T03:12:00.929Z,663.00
2023-05-05T03:13:01.084Z,662.00
2023-05-05T03:14:01.011Z,665.00
2023-05-05T03:15:01.025Z,664.00
2023-05-05T03:16:01.080Z,670.00
2023-05-05T03:17:01.064Z,667.00
2023-05-05T03:18:01.121Z,669.00
2023-05-05T03:19:01.105Z,662.00
2023-05-05T03:20:04.754Z,667.00
2023-05-05T03:21:01.100Z,671.00
2023-05-05T03:22:01.104Z,672.00
2023-05-05T03:23:01.104Z,662.00
2023-05-05T03:24:01.084Z,664.00
2023-05-05T03:25:01.067Z,678.00
2023-05-05T03:26:01.083Z,660.00
2023-05-05T03:27:01.049Z,659.00
2023-05-05T03:28:01.032Z,659.00
2023-05-05T03:29:01.058Z,656.00
2023-05-05T03:30:01.037Z,657.00
2023-05-05T03:31:01.014Z,658.00
2023-05-05T03:32:01.118Z,659.00
2023-05-05T03:33:01.095Z,662.00
2023-05-05T03:34:01.014Z,655.00
2023-05-05T03:35:00.999Z,657.00
2023-05-05T03:36:01.004Z,662.00
2023-05-05T03:37:01.003Z,658.00
2023-05-05T03:38:00.979Z,657.00
2023-05-05T03:39:00.991Z,656.00
2023-05-05T03:40:00.967Z,659.00
2023-05-05T03:41:00.948Z,656.00
2023-05-05T03:42:00.964Z,652.00
2023-05-05T03:43:00.952Z,652.00
2023-05-05T03:44:00.926Z,657.00
2023-05-05T03:45:00.949Z,655.00
2023-05-05T03:46:00.953Z,655.00
2023-05-05T03:47:00.923Z,653.00
2023-05-05T03:48:00.936Z,654.00
2023-05-05T03:49:00.939Z,651.00
2023-05-05T03:50:00.937Z,649.00
2023-05-05T03:51:00.919Z,649.00
2023-05-05T03:52:00.885Z,655.00
2023-05-05T03:53:00.901Z,649.00
2023-05-05T03:54:00.881Z,656.00
2023-05-05T03:55:00.909Z,653.00
2023-05-05T03:56:02.020Z,652.00
2023-05-05T03:57:00.850Z,653.00
2023-05-05T03:58:00.860Z,650.00
2023-05-05T03:59:00.941Z,647.00
2023-05-05T04:00:00.854Z,650.00
2023-05-05T04:01:00.871Z,650.00
2023-05-05T04:02:00.862Z,650.00
2023-05-05T04:03:00.961Z,645.00
2023-05-05T04:04:00.876Z,650.00
2023-05-05T04:05:00.832Z,644.00
2023-05-05T04:06:00.813Z,642.00
2023-05-05T04:07:00.782Z,653.00
2023-05-05T04:08:00.806Z,645.00
2023-05-05T04:09:00.803Z,641.00
2023-05-05T04:10:00.800Z,642.00
2023-05-05T04:11:00.781Z,646.00
2023-05-05T04:12:00.789Z,641.00
2023-05-05T04:13:00.909Z,639.00
2023-05-05T04:14:00.753Z,640.00
2023-05-05T04:15:00.768Z,639.00
2023-05-05T04:16:00.783Z,641.00
2023-05-05T04:17:00.750Z,634.00
2023-05-05T04:18:00.771Z,639.00
2023-05-05T04:19:00.756Z,635.00
2023-05-05T04:20:00.749Z,639.00
2023-05-05T04:21:00.705Z,641.00
2023-05-05T04:22:00.730Z,637.00
2023-05-05T04:23:00.687Z,638.00
2023-05-05T04:24:00.705Z,632.00
2023-05-05T04:25:00.696Z,633.00
2023-05-05T04:26:00.700Z,633.00
2023-05-05T04:27:00.691Z,636.00
2023-05-05T04:28:00.650Z,632.00
2023-05-05T04:29:00.680Z,633.00
2023-05-05T04:30:00.659Z,635.00
2023-05-05T04:31:00.708Z,638.00
2023-05-05T04:32:00.661Z,639.00
2023-05-05T04:33:00.648Z,637.00
2023-05-05T04:34:00.648Z,635.00
2023-05-05T04:35:00.646Z,634.00
2023-05-05T04:36:00.629Z,636.00
2023-05-05T04:37:00.654Z,635.00
2023-05-05T04:38:00.598Z,635.00
2023-05-05T04:39:00.687Z,637.00
2023-05-05T04:40:00.606Z,632.00
2023-05-05T04:41:00.588Z,632.00
2023-05-05T04:42:00.592Z,636.00
2023-05-05T04:43:00.609Z,634.00
2023-05-05T04:44:00.587Z,638.00
2023-05-05T04:45:00.557Z,633.00
2023-05-05T04:46:00.572Z,634.00
2023-05-05T04:47:00.532Z,629.00
2023-05-05T04:48:00.614Z,626.00
2023-05-05T04:49:00.555Z,621.00
2023-05-05T04:50:00.552Z,622.00
2023-05-05T04:51:00.570Z,619.00
2023-05-05T04:52:00.506Z,616.00
2023-05-05T04:53:00.514Z,610.00
2023-05-05T04:54:00.519Z,618.00
2023-05-05T04:55:00.478Z,614.00
2023-05-05T04:56:00.510Z,623.00
2023-05-05T04:57:00.483Z,622.00
2023-05-05T04:58:00.500Z,624.00
2023-05-05T04:59:00.440Z,628.00
2023-05-05T05:00:00.469Z,629.00
2023-05-05T05:01:00.486Z,633.00
2023-05-05T05:02:00.550Z,638.00
2023-05-05T05:03:00.639Z,637.00
2023-05-05T05:04:00.647Z,639.00
2023-05-05T05:05:00.580Z,647.00
2023-05-05T05:06:00.677Z,643.00
2023-05-05T05:07:00.703Z,646.00
2023-05-05T05:08:00.731Z,649.00
2023-05-05T05:09:00.761Z,651.00
2023-05-05T05:10:00.842Z,646.00
2023-05-05T05:11:00.840Z,661.00
2023-05-05T05:12:00.897Z,658.00
2023-05-05T05:13:00.932Z,658.00
2023-05-05T05:14:00.979Z,656.00
2023-05-05T05:15:01.017Z,663.00
2023-05-05T05:16:01.112Z,682.00
2023-05-05T05:17:01.102Z,663.00
2023-05-05T05:18:01.136Z,685.00
2023-05-05T05:19:01.743Z,686.00
2023-05-05T05:20:01.240Z,682.00
2023-05-05T05:21:01.222Z,705.00
2023-05-05T05:22:01.255Z,693.00
2023-05-05T05:23:01.312Z,710.00
2023-05-05T05:24:01.344Z,714.00
2023-05-05T05:25:01.398Z,697.00
2023-05-05T05:26:01.393Z,706.00
2023-05-05T05:27:01.464Z,708.00
2023-05-05T05:28:09.028Z,700.00
2023-05-05T05:29:02.480Z,701.00
2023-05-05T05:30:01.537Z,707.00
2023-05-05T05:31:01.550Z,710.00
2023-05-05T05:32:01.492Z,716.00
2023-05-05T05:33:01.489Z,720.00
2023-05-05T05:34:01.440Z,718.00
2023-05-05T05:35:01.473Z,710.00
2023-05-05T05:36:01.422Z,711.00
2023-05-05T05:37:01.444Z,718.00
2023-05-05T05:38:01.416Z,703.00
2023-05-05T05:39:01.427Z,727.00
2023-05-05T05:40:01.434Z,703.00
2023-05-05T05:41:01.455Z,734.00
2023-05-05T05:42:01.474Z,708.00
2023-05-05T05:43:01.564Z,732.00
2023-05-05T05:44:01.603Z,758.00
2023-05-05T05:45:01.667Z,796.00
2023-05-05T05:46:01.755Z,767.00
2023-05-05T05:47:01.753Z,782.00
2023-05-05T05:48:01.834Z,835.00
2023-05-05T05:49:01.820Z,837.00
2023-05-05T05:50:01.867Z,842.00
2023-05-05T05:51:01.898Z,874.00
2023-05-05T05:52:02.074Z,874.00
2023-05-05T05:53:01.948Z,897.00
2023-05-05T05:54:01.975Z,945.00
2023-05-05T05:55:02.084Z,958.00
2023-05-05T05:56:02.000Z,1041.00
2023-05-05T05:57:02.035Z,1014.00
2023-05-05T05:58:03.030Z,1053.00
2023-05-05T05:59:02.061Z,1063.00
2023-05-05T06:00:02.392Z,1087.00
2023-05-05T06:01:02.066Z,1098.00
2023-05-05T06:02:02.133Z,1105.00
2023-05-05T06:03:02.144Z,1138.00
2023-05-05T06:04:02.175Z,1156.00
2023-05-05T06:05:02.106Z,1167.00
2023-05-05T06:06:02.156Z,1202.00
2023-05-05T06:07:02.562Z,1203.00
2023-05-05T06:08:02.267Z,1241.00
2023-05-05T06:09:02.239Z,1262.00
2023-05-05T06:10:14.568Z,1266.00
2023-05-05T06:11:03.241Z,1267.00
2023-05-05T06:12:02.576Z,1275.00
2023-05-05T06:13:02.234Z,1296.00
2023-05-05T06:14:02.206Z,1325.00
2023-05-05T06:15:02.191Z,1379.00
2023-05-05T06:16:02.285Z,1394.00
2023-05-05T06:17:02.172Z,1413.00
2023-05-05T06:18:02.215Z,1424.00
2023-05-05T06:19:02.202Z,1421.00
2023-05-05T06:20:02.232Z,1456.00
2023-05-05T06:21:02.303Z,1466.00
2023-05-05T06:22:03.069Z,1470.00
2023-05-05T06:23:02.418Z,1482.00
2023-05-05T06:24:02.465Z,1506.00
2023-05-05T06:25:02.520Z,1514.00
2023-05-05T06:26:02.600Z,1515.00
2023-05-05T06:27:02.666Z,1534.00
2023-05-05T06:28:02.690Z,1543.00
2023-05-05T06:29:02.741Z,1548.00
2023-05-05T06:30:02.871Z,1560.00
2023-05-05T06:31:02.874Z,1547.00
2023-05-05T06:32:02.936Z,1567.00
2023-05-05T06:33:02.993Z,1576.00
2023-05-05T06:34:03.032Z,1595.00
2023-05-05T06:35:03.074Z,1601.00
2023-05-05T06:36:03.152Z,1600.00
2023-05-05T06:37:03.593Z,1606.00
2023-05-05T06:38:03.229Z,1606.00
2023-05-05T06:39:03.280Z,1620.00
2023-05-05T06:40:03.294Z,1618.00
2023-05-05T06:41:03.359Z,1633.00
2023-05-05T06:42:03.407Z,1631.00
2023-05-05T06:43:03.461Z,1648.00
2023-05-05T06:44:03.481Z,1643.00
2023-05-05T06:45:03.514Z,1648.00
2023-05-05T06:46:03.551Z,1657.00
2023-05-05T06:47:04.153Z,1671.00
2023-05-05T06:48:03.696Z,1676.00
2023-05-05T06:49:03.641Z,1692.00
2023-05-05T06:50:03.744Z,1691.00
2023-05-05T06:51:03.754Z,1704.00
2023-05-05T06:52:03.812Z,1721.00
2023-05-05T06:53:03.788Z,1718.00
2023-05-05T06:54:03.809Z,1719.00
2023-05-05T06:55:03.926Z,1725.00
2023-05-05T06:56:03.881Z,1709.00
2023-05-05T06:57:03.899Z,1684.00
2023-05-05T06:58:03.931Z,1688.00
2023-05-05T06:59:03.952Z,1703.00
2023-05-05T07:00:03.988Z,1690.00
2023-05-05T07:01:04.085Z,1669.00
2023-05-05T07:02:04.118Z,1647.00
2023-05-05T07:03:04.147Z,1653.00
2023-05-05T07:04:04.167Z,1648.00
2023-05-05T07:05:04.185Z,1644.00
2023-05-05T07:06:04.230Z,1623.00
2023-05-05T07:07:04.260Z,1615.00
2023-05-05T07:08:04.216Z,1611.00
2023-05-05T07:09:04.266Z,1598.00
2023-05-05T07:10:04.310Z,1579.00
2023-05-05T07:11:04.367Z,1584.00
2023-05-05T07:12:04.330Z,1557.00
2023-05-05T07:13:04.420Z,1557.00
2023-05-05T07:14:04.391Z,1543.00
2023-05-05T07:15:12.394Z,1523.00
2023-05-05T07:16:05.434Z,1523.00
2023-05-05T07:17:04.372Z,1506.00
2023-05-05T07:18:04.411Z,1492.00
2023-05-05T07:19:04.361Z,1503.00
2023-05-05T07:20:04.372Z,1490.00
2023-05-05T07:21:04.464Z,1485.00
2023-05-05T07:22:04.391Z,1488.00
2023-05-05T07:23:04.347Z,1500.00
2023-05-05T07:24:04.368Z,1507.00
2023-05-05T07:25:04.332Z,1494.00
2023-05-05T07:26:04.346Z,1500.00
2023-05-05T07:27:04.410Z,1511.00
2023-05-05T07:28:04.347Z,1511.00
2023-05-05T07:29:04.357Z,1528.00
2023-05-05T07:30:09.115Z,1518.00
2023-05-05T07:31:05.289Z,1519.00
2023-05-05T07:32:04.335Z,1519.00
2023-05-05T07:33:04.363Z,1520.00
2023-05-05T07:34:04.256Z,1522.00
2023-05-05T07:35:04.275Z,1531.00
2023-05-05T07:36:04.264Z,1540.00
2023-05-05T07:37:04.245Z,1545.00
2023-05-05T07:38:04.237Z,1540.00
2023-05-05T07:39:07.668Z,1544.00
2023-05-05T07:40:04.216Z,1557.00
2023-05-05T07:41:04.222Z,1544.00
2023-05-05T07:42:04.624Z,1524.00
2023-05-05T07:43:04.357Z,1508.00
2023-05-05T07:44:04.227Z,1473.00
2023-05-05T07:45:04.235Z,1465.00
2023-05-05T07:46:04.249Z,1488.00
2023-05-05T07:47:04.615Z,1487.00
2023-05-05T07:48:04.251Z,1521.00
2023-05-05T07:49:04.223Z,1534.00
2023-05-05T07:50:04.216Z,1492.00
2023-05-05T07:51:04.192Z,1454.00
2023-05-05T07:52:04.168Z,1451.00
2023-05-05T07:53:13.523Z,1435.00
2023-05-05T07:54:05.170Z,1436.00
2023-05-05T07:55:04.112Z,1439.00
2023-05-05T07:56:04.136Z,1437.00
2023-05-05T07:57:04.116Z,1409.00
2023-05-05T07:58:04.147Z,1409.00
2023-05-05T07:59:04.171Z,1429.00
2023-05-05T08:00:04.081Z,1421.00
2023-05-05T08:01:04.098Z,1415.00
2023-05-05T08:02:04.077Z,1381.00
2023-05-05T08:03:04.275Z,1393.00
2023-05-05T08:04:04.236Z,1405.00
2023-05-05T08:05:04.080Z,1388.00
2023-05-05T08:06:04.069Z,1376.00
2023-05-05T08:07:04.057Z,1373.00
2023-05-05T08:08:04.062Z,1347.00
2023-05-05T08:09:04.041Z,1339.00
2023-05-05T08:10:04.032Z,1359.00
2023-05-05T08:11:04.041Z,1344.00
2023-05-05T08:12:04.026Z,1329.00
2023-05-05T08:13:04.025Z,1331.00
2023-05-05T08:14:04.019Z,1318.00
2023-05-05T08:15:04.288Z,1311.00
2023-05-05T08:16:04.119Z,1313.00
2023-05-05T08:17:04.115Z,1320.00
2023-05-05T08:18:04.175Z,1311.00
2023-05-05T08:19:06.252Z,1311.00
2023-05-05T08:20:05.144Z,1312.00
2023-05-05T08:21:04.103Z,1312.00
2023-05-05T08:22:04.108Z,1305.00
2023-05-05T08:23:04.119Z,1311.00
2023-05-05T08:24:04.104Z,1308.00
2023-05-05T08:25:04.114Z,1320.00
2023-05-05T08:26:04.109Z,1341.00
2023-05-05T08:27:04.111Z,1336.00
2023-05-05T08:28:04.098Z,1367.00
2023-05-05T08:29:04.093Z,1376.00
2023-05-05T08:30:04.093Z,1377.00
2023-05-05T08:31:04.152Z,1388.00
2023-05-05T08:32:04.070Z,1385.00
2023-05-05T08:33:04.126Z,1376.00
2023-05-05T08:34:04.062Z,1377.00
2023-05-05T08:35:04.029Z,1371.00
2023-05-05T08:36:04.036Z,1363.00
2023-05-05T08:37:04.061Z,1341.00
2023-05-05T08:38:04.027Z,1285.00
2023-05-05T08:39:04.045Z,1238.00
2023-05-05T08:40:04.070Z,1250.00
2023-05-05T08:41:04.082Z,1247.00
2023-05-05T08:42:04.137Z,1257.00
2023-05-05T08:43:04.148Z,1232.00
2023-05-05T08:44:04.180Z,1228.00
2023-05-05T08:45:04.209Z,1214.00
2023-05-05T08:46:04.225Z,1201.00
2023-05-05T08:47:04.784Z,1182.00
2023-05-05T08:48:04.385Z,1195.00
2023-05-05T08:49:04.333Z,1191.00
2023-05-05T08:50:04.383Z,1153.00
2023-05-05T08:51:05.568Z,1154.00
2023-05-05T08:52:04.443Z,1148.00
2023-05-05T08:53:04.550Z,1136.00
2023-05-05T08:54:04.533Z,1131.00
2023-05-05T08:55:04.588Z,1117.00
2023-05-05T08:56:04.633Z,1129.00
2023-05-05T08:57:04.673Z,1101.00
2023-05-05T08:58:04.702Z,1079.00
2023-05-05T08:59:04.762Z,1080.00
2023-05-05T09:00:04.838Z,1063.00
2023-05-05T09:01:04.918Z,1044.00
2023-05-05T09:02:04.955Z,1040.00
2023-05-05T09:03:05.280Z,1016.00
2023-05-05T09:04:05.046Z,1013.00
2023-05-05T09:05:05.164Z,997.00
2023-05-05T09:06:05.135Z,996.00
2023-05-05T09:07:05.190Z,961.00
2023-05-05T09:08:05.670Z,958.00
2023-05-05T09:09:05.282Z,955.00
2023-05-05T09:10:05.337Z,961.00
2023-05-05T09:11:05.357Z,965.00
2023-05-05T09:12:05.402Z,977.00
2023-05-05T09:13:05.556Z,949.00
2023-05-05T09:14:05.553Z,947.00
2023-05-05T09:15:05.771Z,941.00
2023-05-05T09:16:05.665Z,913.00
2023-05-05T09:17:05.708Z,936.00
2023-05-05T09:18:05.784Z,900.00
2023-05-05T09:19:05.769Z,892.00
2023-05-05T09:20:05.824Z,877.00
2023-05-05T09:21:05.875Z,899.00
2023-05-05T09:22:05.945Z,878.00
2023-05-05T09:23:06.141Z,853.00
2023-05-05T09:24:08.631Z,832.00
2023-05-05T09:25:06.374Z,834.00
2023-05-05T09:26:06.036Z,834.00
2023-05-05T09:27:06.066Z,841.00
2023-05-05T09:28:06.147Z,804.00
2023-05-05T09:29:06.034Z,802.00
2023-05-05T09:30:06.043Z,788.00
2023-05-05T09:31:06.056Z,795.00
2023-05-05T09:32:06.036Z,825.00
2023-05-05T09:33:06.079Z,895.00
2023-05-05T09:34:05.998Z,918.00
2023-05-05T09:35:06.149Z,976.00
2023-05-05T09:36:05.983Z,1024.00
2023-05-05T09:37:06.220Z,1095.00
2023-05-05T09:38:05.992Z,1147.00
2023-05-05T09:39:05.961Z,1187.00
2023-05-05T09:40:06.009Z,1190.00
2023-05-05T09:41:05.945Z,1232.00
2023-05-05T09:42:05.964Z,1285.00
2023-05-05T09:43:06.171Z,1295.00
2023-05-05T09:44:05.930Z,1330.00
2023-05-05T09:45:06.017Z,1339.00
2023-05-05T09:46:05.970Z,1288.00
2023-05-05T09:47:18.130Z,1330.00
2023-05-05T09:48:07.191Z,1333.00
2023-05-05T09:49:05.906Z,1343.00
2023-05-05T09:50:06.010Z,1367.00
2023-05-05T09:51:05.861Z,1407.00
2023-05-05T09:52:05.898Z,1466.00
2023-05-05T09:53:05.893Z,1489.00
2023-05-05T09:54:05.863Z,1489.00
2023-05-05T09:55:05.869Z,1533.00
2023-05-05T09:56:05.837Z,1564.00
2023-05-05T09:57:05.874Z,1583.00
2023-05-05T09:58:06.156Z,1595.00
2023-05-05T09:59:05.898Z,1635.00
2023-05-05T10:00:06.027Z,1656.00
2023-05-05T10:01:06.062Z,1683.00
2023-05-05T10:02:06.073Z,1681.00
2023-05-05T10:03:06.174Z,1684.00
2023-05-05T10:04:06.150Z,1704.00
2023-05-05T10:05:06.292Z,1720.00
2023-05-05T10:06:06.291Z,1759.00
2023-05-05T10:07:06.398Z,1744.00
2023-05-05T10:08:06.660Z,1733.00
2023-05-05T10:09:06.440Z,1746.00
2023-05-05T10:10:06.574Z,1745.00
2023-05-05T10:11:06.515Z,1744.00
2023-05-05T10:12:06.536Z,1755.00
2023-05-05T10:13:06.653Z,1769.00
2023-05-05T10:14:06.628Z,1771.00
2023-05-05T10:15:06.728Z,1776.00
2023-05-05T10:16:07.748Z,1800.00
2023-05-05T10:17:06.761Z,1819.00
2023-05-05T10:18:08.470Z,1776.00
2023-05-05T10:19:06.853Z,1755.00
2023-05-05T10:20:07.074Z,1771.00
2023-05-05T10:21:06.956Z,1794.00
2023-05-05T10:22:06.983Z,1804.00
2023-05-05T10:23:07.176Z,1826.00
2023-05-05T10:24:07.038Z,1843.00
2023-05-05T10:25:07.091Z,1855.00
2023-05-05T10:26:07.138Z,1865.00
2023-05-05T10:27:07.167Z,1862.00
2023-05-05T10:28:07.199Z,1867.00
2023-05-05T10:29:07.208Z,1871.00
2023-05-05T10:30:07.563Z,1908.00
2023-05-05T10:31:16.527Z,1910.00
2023-05-05T10:32:27.129Z,1911.00
2023-05-05T10:34:07.318Z,1913.00
2023-05-05T10:35:07.250Z,1923.00
2023-05-05T10:36:07.258Z,1936.00
2023-05-05T10:37:07.234Z,1842.00
2023-05-05T10:38:07.247Z,1589.00
2023-05-05T10:39:07.302Z,1634.00
2023-05-05T10:40:07.609Z,1732.00
2023-05-05T10:41:07.217Z,1698.00
2023-05-05T10:42:07.256Z,1712.00
2023-05-05T10:43:07.200Z,1752.00
2023-05-05T10:44:07.194Z,1728.00
2023-05-05T10:45:07.217Z,1780.00
2023-05-05T10:46:07.241Z,1780.00
2023-05-05T10:47:07.211Z,1788.00
2023-05-05T10:48:07.239Z,1693.00
2023-05-05T10:49:07.182Z,1695.00
2023-05-05T10:50:07.372Z,1630.00
2023-05-05T10:51:07.194Z,1672.00
2023-05-05T10:52:07.176Z,1717.00
2023-05-05T10:53:07.160Z,1722.00
2023-05-05T10:54:07.202Z,1789.00
2023-05-05T10:55:07.247Z,1853.00
2023-05-05T10:56:07.143Z,1906.00
2023-05-05T10:57:07.103Z,1945.00
2023-05-05T10:58:07.128Z,2001.00
2023-05-05T10:59:07.138Z,2025.00
2023-05-05T11:00:07.357Z,2038.00
2023-05-05T11:01:07.101Z,1967.00
2023-05-05T11:02:07.073Z,1919.00
2023-05-05T11:03:07.153Z,1939.00
2023-05-05T11:04:07.151Z,1982.00
2023-05-05T11:05:07.118Z,1976.00
2023-05-05T11:06:07.098Z,1996.00
2023-05-05T11:07:07.066Z,2025.00
2023-05-05T11:08:07.067Z,2015.00
2023-05-05T11:09:07.043Z,2016.00
2023-05-05T11:10:07.287Z,2019.00
2023-05-05T11:11:07.031Z,2021.00
2023-05-05T11:12:07.082Z,2017.00
2023-05-05T11:13:07.102Z,2056.00
2023-05-05T11:14:07.007Z,2039.00
2023-05-05T11:15:07.039Z,1973.00
2023-05-05T11:16:07.016Z,1891.00
2023-05-05T11:17:07.008Z,1838.00
2023-05-05T11:18:07.959Z,1829.00
2023-05-05T11:19:06.978Z,1781.00
2023-05-05T11:20:07.147Z,1768.00
2023-05-05T11:21:06.993Z,1777.00
2023-05-05T11:22:06.968Z,1781.00
2023-05-05T11:23:07.051Z,1779.00
2023-05-05T11:24:06.982Z,1779.00
2023-05-05T11:25:06.946Z,1788.00
2023-05-05T11:26:06.942Z,1813.00
2023-05-05T11:27:07.068Z,1799.00
2023-05-05T11:28:07.202Z,1801.00
2023-05-05T11:29:06.917Z,1711.00
2023-05-05T11:30:07.123Z,1743.00
2023-05-05T11:31:06.941Z,1764.00
2023-05-05T11:32:06.915Z,1504.00
2023-05-05T11:33:07.365Z,1071.00
2023-05-05T11:34:06.920Z,980.00
2023-05-05T11:35:06.891Z,763.00
2023-05-05T11:36:07.358Z,749.00
2023-05-05T11:37:06.911Z,918.00
2023-05-05T11:38:06.922Z,1062.00
2023-05-05T11:39:06.912Z,1073.00
2023-05-05T11:40:07.000Z,1087.00
2023-05-05T11:41:06.849Z,1088.00
2023-05-05T11:42:10.488Z,1093.00
2023-05-05T11:43:06.879Z,1094.00
2023-05-05T11:44:06.848Z,1098.00
2023-05-05T11:45:06.846Z,1105.00
2023-05-05T11:46:06.918Z,1115.00
2023-05-05T11:47:06.834Z,1094.00
2023-05-05T11:48:07.064Z,1076.00
2023-05-05T11:49:06.820Z,1092.00
2023-05-05T11:50:07.001Z,1056.00
2023-05-05T11:51:06.812Z,1043.00
2023-05-05T11:52:06.825Z,1052.00
2023-05-05T11:53:06.801Z,1044.00
2023-05-05T11:54:06.778Z,1049.00
2023-05-05T11:55:06.780Z,1024.00
2023-05-05T11:56:06.839Z,985.00
2023-05-05T11:57:06.770Z,937.00
2023-05-05T11:58:06.731Z,935.00
2023-05-05T11:59:06.810Z,932.00
2023-05-05T12:00:06.810Z,892.00
2023-05-05T12:01:06.709Z,883.00
2023-05-05T12:02:06.765Z,861.00
2023-05-05T12:03:06.857Z,858.00
2023-05-05T12:04:06.833Z,836.00
2023-05-05T12:05:06.692Z,836.00
2023-05-05T12:06:06.673Z,842.00
2023-05-05T12:07:06.666Z,800.00
2023-05-05T12:08:06.705Z,798.00
2023-05-05T12:09:06.657Z,772.00
2023-05-05T12:10:06.843Z,797.00
2023-05-05T12:11:06.705Z,754.00
2023-05-05T12:12:06.733Z,720.00
2023-05-05T12:13:06.806Z,755.00
2023-05-05T12:14:06.868Z,744.00
2023-05-05T12:15:07.046Z,729.00
2023-05-05T12:16:06.984Z,690.00
2023-05-05T12:17:07.033Z,653.00
2023-05-05T12:18:07.118Z,653.00
2023-05-05T12:19:07.159Z,649.00
2023-05-05T12:20:07.274Z,632.00